createdAt,value
2022-08-27T00:00:16.242Z,8.07
2022-08-27T00:03:02.791Z,9.65
2022-08-27T00:05:48.959Z,11.98
2022-08-27T00:08:34.489Z,13.95
2022-08-27T00:11:22.535Z,7.57
2022-08-27T00:14:07.998Z,9.45
2022-08-27T00:16:53.805Z,9.75
2022-08-27T00:19:39.889Z,7.63
2022-08-27T00:22:25.353Z,9.02
2022-08-27T00:25:13.712Z,6.10
2022-08-27T00:27:59.283Z,10.98
2022-08-27T00:30:44.737Z,10.68
2022-08-27T00:33:30.642Z,9.10
2022-08-27T00:36:16.666Z,13.13
2022-08-27T00:39:02.718Z,8.27
2022-08-27T00:41:48.557Z,10.88
2022-08-27T00:44:34.832Z,10.80
2022-08-27T00:47:25.548Z,7.78
2022-08-27T00:50:20.845Z,12.48
2022-08-27T00:53:10.459Z,8.68
2022-08-27T00:56:03.466Z,9.38
2022-08-27T00:58:54.443Z,9.13
2022-08-27T01:01:59.736Z,9.25
2022-08-27T01:04:48.192Z,7.20
2022-08-27T01:07:36.920Z,11.57
2022-08-27T01:10:25.403Z,8.77
2022-08-27T01:13:13.743Z,11.15
2022-08-27T01:16:00.319Z,9.75
2022-08-27T01:18:46.638Z,6.38
2022-08-27T01:21:59.802Z,9.60
2022-08-27T01:24:48.749Z,10.73
2022-08-27T01:27:34.369Z,11.20
2022-08-27T01:30:21.698Z,9.68
2022-08-27T01:33:16.913Z,13.32
2022-08-27T01:36:03.570Z,14.88
2022-08-27T01:38:49.132Z,10.07
2022-08-27T01:41:34.674Z,16.88
2022-08-27T01:44:21.034Z,10.45
2022-08-27T01:47:06.458Z,8.55
2022-08-27T01:49:52.194Z,11.07
2022-08-27T01:52:37.595Z,7.45
2022-08-27T01:55:25.931Z,9.75
2022-08-27T01:58:15.147Z,10.52
2022-08-27T02:01:05.561Z,7.03
2022-08-27T02:03:51.155Z,11.32
2022-08-27T02:06:36.783Z,9.77
2022-08-27T02:09:22.233Z,10.68
2022-08-27T02:12:08.788Z,9.32
2022-08-27T02:14:53.959Z,8.55
2022-08-27T02:17:40.000Z,10.35
2022-08-27T02:20:25.383Z,12.45
2022-08-27T02:23:15.990Z,8.85
2022-08-27T02:26:01.555Z,10.95
2022-08-27T02:28:47.250Z,15.00
2022-08-27T02:31:33.532Z,9.73
2022-08-27T02:34:19.348Z,7.65
2022-08-27T02:37:04.914Z,9.52
2022-08-27T02:39:51.392Z,8.23
2022-08-27T02:42:38.183Z,8.88
2022-08-27T02:45:23.873Z,10.60
2022-08-27T02:48:09.960Z,8.00
2022-08-27T02:50:55.767Z,11.10
2022-08-27T02:53:41.778Z,10.80
2022-08-27T02:56:27.902Z,9.52
2022-08-27T02:59:13.563Z,11.65
2022-08-27T03:01:59.315Z,11.98
2022-08-27T03:04:45.677Z,11.60
2022-08-27T03:07:31.383Z,8.85
2022-08-27T03:10:19.471Z,10.68
2022-08-27T03:13:04.829Z,10.23
2022-08-27T03:15:50.128Z,8.43
2022-08-27T03:18:36.846Z,8.45
2022-08-27T03:21:25.916Z,13.98
2022-08-27T03:24:14.610Z,8.05
2022-08-27T03:27:00.219Z,9.18
2022-08-27T03:29:45.559Z,9.65
2022-08-27T03:32:31.207Z,7.72
2022-08-27T03:35:17.591Z,9.55
2022-08-27T03:38:03.271Z,9.35
2022-08-27T03:40:49.159Z,10.20
2022-08-27T03:43:35.916Z,10.35
2022-08-27T03:46:22.887Z,8.48
2022-08-27T03:49:08.659Z,13.15
2022-08-27T03:51:58.984Z,12.50
2022-08-27T03:54:44.953Z,10.20
2022-08-27T03:57:30.427Z,12.27
2022-08-27T04:00:16.505Z,10.55
2022-08-27T04:03:02.191Z,9.90
2022-08-27T04:05:53.208Z,9.73
2022-08-27T04:08:38.734Z,10.63
2022-08-27T04:11:24.316Z,14.77
2022-08-27T04:14:25.370Z,10.18
2022-08-27T04:17:13.281Z,9.70
2022-08-27T04:20:18.779Z,8.50
2022-08-27T04:23:09.434Z,8.77
2022-08-27T04:25:54.748Z,10.43
2022-08-27T04:28:40.258Z,7.28
2022-08-27T04:31:26.161Z,11.23
2022-08-27T04:34:11.492Z,9.80
2022-08-27T04:36:57.416Z,7.13
2022-08-27T04:39:42.671Z,10.40
2022-08-27T04:42:31.195Z,8.63
2022-08-27T04:45:17.385Z,11.38
2022-08-27T04:48:03.105Z,8.73
2022-08-27T04:50:49.040Z,13.77
2022-08-27T04:53:34.676Z,15.05
2022-08-27T04:56:22.398Z,11.48
2022-08-27T04:59:10.821Z,8.45
2022-08-27T05:01:56.217Z,11.60
2022-08-27T05:04:42.682Z,7.90
2022-08-27T05:07:28.186Z,8.63
2022-08-27T05:10:13.855Z,9.10
2022-08-27T05:13:00.067Z,9.88
2022-08-27T05:15:46.540Z,8.63
2022-08-27T05:18:37.564Z,10.13
2022-08-27T05:21:31.896Z,12.52
2022-08-27T05:24:18.012Z,8.57
2022-08-27T05:27:04.319Z,12.02
2022-08-27T05:29:49.526Z,8.20
2022-08-27T05:32:34.998Z,9.98
2022-08-27T05:35:20.651Z,10.43
2022-08-27T05:38:06.404Z,8.68
2022-08-27T05:41:02.000Z,7.00
2022-08-27T05:43:50.364Z,10.73
2022-08-27T05:46:39.471Z,7.68
2022-08-27T05:49:25.296Z,10.90
2022-08-27T05:52:11.599Z,10.88
2022-08-27T05:54:56.732Z,11.57
2022-08-27T05:57:42.437Z,10.40
2022-08-27T06:00:46.289Z,8.20
2022-08-27T06:03:37.549Z,9.65
2022-08-27T06:06:23.758Z,11.10
2022-08-27T06:09:11.595Z,11.13
2022-08-27T06:11:59.652Z,10.15
2022-08-27T06:14:45.215Z,15.20
2022-08-27T06:17:30.919Z,10.77
2022-08-27T06:20:16.583Z,11.43
2022-08-27T06:23:02.450Z,8.90
2022-08-27T06:25:48.127Z,8.70
2022-08-27T06:28:34.367Z,11.63
2022-08-27T06:31:28.040Z,12.38
2022-08-27T06:34:13.567Z,7.55
2022-08-27T06:36:59.698Z,11.38
2022-08-27T06:39:45.081Z,15.50
2022-08-27T06:42:31.589Z,9.00
2022-08-27T06:45:20.606Z,9.10
2022-08-27T06:48:05.892Z,9.88
2022-08-27T06:50:51.329Z,13.82
2022-08-27T06:53:37.041Z,7.47
2022-08-27T06:56:23.182Z,11.13
2022-08-27T06:59:12.083Z,8.32
2022-08-27T07:01:58.204Z,9.40
2022-08-27T07:04:43.928Z,10.75
2022-08-27T07:07:34.439Z,8.60
2022-08-27T07:10:24.644Z,12.52
2022-08-27T07:13:10.382Z,9.90
2022-08-27T07:15:56.460Z,12.10
2022-08-27T07:18:44.856Z,9.68
2022-08-27T07:21:31.269Z,10.43
2022-08-27T07:24:17.559Z,8.65
2022-08-27T07:27:03.495Z,9.65
2022-08-27T07:29:49.287Z,8.00
2022-08-27T07:32:34.885Z,7.82
2022-08-27T07:35:20.791Z,11.98
2022-08-27T07:38:06.880Z,7.53
2022-08-27T07:40:52.794Z,12.35
2022-08-27T07:43:57.718Z,9.90
2022-08-27T07:46:48.011Z,6.82
2022-08-27T07:49:35.467Z,10.30
2022-08-27T07:52:25.916Z,9.77
2022-08-27T07:55:12.625Z,15.27
2022-08-27T07:57:58.311Z,12.07
2022-08-27T08:00:45.672Z,10.98
2022-08-27T08:03:31.528Z,11.82
2022-08-27T08:06:17.720Z,12.48
2022-08-27T08:09:16.702Z,11.93
2022-08-27T08:12:02.506Z,10.23
2022-08-27T08:14:49.108Z,11.30
2022-08-27T08:17:35.640Z,7.78
2022-08-27T08:20:31.114Z,10.05
2022-08-27T08:23:21.326Z,10.70
2022-08-27T08:26:08.260Z,8.55
2022-08-27T08:28:54.226Z,13.20
2022-08-27T08:31:43.367Z,9.07
2022-08-27T08:34:32.619Z,10.00
2022-08-27T08:37:18.477Z,7.93
2022-08-27T08:40:05.633Z,8.10
2022-08-27T08:42:56.690Z,11.82
2022-08-27T08:45:43.668Z,12.93
2022-08-27T08:48:31.189Z,6.00
2022-08-27T08:51:32.782Z,8.77
2022-08-27T08:54:24.727Z,13.00
2022-08-27T08:57:30.988Z,11.25
2022-08-27T09:00:16.659Z,11.63
2022-08-27T09:03:02.882Z,10.55
2022-08-27T09:06:02.507Z,8.07
2022-08-27T09:08:48.359Z,11.73
2022-08-27T09:11:34.187Z,9.60
2022-08-27T09:14:46.307Z,13.07
2022-08-27T09:17:33.566Z,11.27
2022-08-27T09:20:21.602Z,8.02
2022-08-27T09:26:16.536Z,8.23
2022-08-27T09:29:20.151Z,9.60
2022-08-27T09:32:09.980Z,8.23
2022-08-27T09:35:01.527Z,9.23
2022-08-27T09:37:51.839Z,10.10
2022-08-27T09:40:49.396Z,7.97
2022-08-27T09:43:36.842Z,9.02
2022-08-27T09:46:26.967Z,7.35
2022-08-27T09:49:17.545Z,11.00
2022-08-27T09:52:03.415Z,10.02
2022-08-27T09:54:52.327Z,9.98
2022-08-27T09:57:42.132Z,7.18
2022-08-27T10:00:37.442Z,5.20
2022-08-27T10:03:23.278Z,8.55
2022-08-27T10:06:10.520Z,9.55
2022-08-27T10:09:07.345Z,8.77
2022-08-27T10:12:30.495Z,8.32
2022-08-27T10:15:16.881Z,10.05
2022-08-27T10:18:15.431Z,6.32
2022-08-27T10:21:10.173Z,7.05
2022-08-27T10:24:14.312Z,6.75
2022-08-27T10:27:24.230Z,7.85
2022-08-27T10:30:20.377Z,8.32
2022-08-27T10:33:22.848Z,7.53
2022-08-27T10:36:51.456Z,9.52
2022-08-27T10:39:58.511Z,6.00
2022-08-27T10:43:08.795Z,7.78
2022-08-27T10:46:47.529Z,6.28
2022-08-27T10:49:52.292Z,5.93
2022-08-27T10:52:51.485Z,7.60
2022-08-27T10:55:51.383Z,8.68
2022-08-27T10:59:00.029Z,7.18
2022-08-27T11:02:19.559Z,9.07
2022-08-27T11:05:30.623Z,10.70
2022-08-27T11:08:19.167Z,6.15
2022-08-27T11:12:03.146Z,5.47
2022-08-27T11:14:35.318Z,5.88
2022-08-27T11:17:35.713Z,6.70
2022-08-27T11:20:29.822Z,8.77
2022-08-27T11:23:23.732Z,8.05
2022-08-27T11:26:12.862Z,7.22
2022-08-27T11:29:02.230Z,5.43
2022-08-27T11:31:56.499Z,3.70
2022-08-27T11:35:02.083Z,3.08
2022-08-27T11:38:27.467Z,4.28
2022-08-27T11:41:58.809Z,4.40
2022-08-27T11:44:46.964Z,10.35
2022-08-27T11:47:32.443Z,7.38
2022-08-27T11:50:20.875Z,5.03
2022-08-27T11:53:07.612Z,3.92
2022-08-27T11:55:53.566Z,6.68
2022-08-27T11:58:53.021Z,7.03
2022-08-27T12:01:40.273Z,9.38
2022-08-27T12:04:32.185Z,4.97
2022-08-27T12:07:18.049Z,5.57
2022-08-27T12:10:19.715Z,7.13
2022-08-27T12:13:14.008Z,5.03
2022-08-27T12:16:12.731Z,5.97
2022-08-27T12:19:10.358Z,4.80
2022-08-27T12:22:09.291Z,7.63
2022-08-27T12:24:58.034Z,4.03
2022-08-27T12:27:54.285Z,4.65
2022-08-27T12:30:49.462Z,2.63
2022-08-27T12:33:45.544Z,7.22
2022-08-27T12:36:33.638Z,6.38
2022-08-27T12:39:29.998Z,6.18
2022-08-27T12:42:21.813Z,6.10
2022-08-27T12:45:07.566Z,5.88
2022-08-27T12:47:55.181Z,4.65
2022-08-27T12:50:40.719Z,4.45
2022-08-27T12:53:51.465Z,5.25
2022-08-27T12:56:51.057Z,4.20
2022-08-27T12:59:45.719Z,5.85
2022-08-27T13:02:46.630Z,3.65
2022-08-27T13:05:44.791Z,4.63
2022-08-27T13:08:32.938Z,2.95
2022-08-27T13:11:24.601Z,5.00
2022-08-27T13:14:22.320Z,3.25
2022-08-27T13:17:24.770Z,3.17
2022-08-27T13:20:22.428Z,7.05
2022-08-27T13:23:20.259Z,5.68
2022-08-27T13:26:08.578Z,5.75
2022-08-27T13:28:54.177Z,5.70
2022-08-27T13:31:39.866Z,7.32
2022-08-27T13:34:28.275Z,5.03
2022-08-27T13:37:26.966Z,5.07
2022-08-27T13:40:27.051Z,3.05
2022-08-27T13:43:14.704Z,5.93
2022-08-27T13:46:01.897Z,3.47
2022-08-27T13:48:51.342Z,6.90
2022-08-27T13:51:37.209Z,5.70
2022-08-27T13:54:23.381Z,4.50
2022-08-27T13:57:11.291Z,7.00
2022-08-27T14:00:08.430Z,4.78
2022-08-27T14:02:56.351Z,4.53
2022-08-27T14:05:48.513Z,4.90
2022-08-27T14:08:36.208Z,2.95
2022-08-27T14:11:27.374Z,4.45
2022-08-27T14:14:13.885Z,5.57
2022-08-27T14:17:01.606Z,7.57
2022-08-27T14:19:47.559Z,6.22
2022-08-27T14:22:35.887Z,5.88
2022-08-27T14:25:22.341Z,5.45
2022-08-27T14:28:08.124Z,7.18
2022-08-27T14:30:53.843Z,5.28
2022-08-27T14:33:39.675Z,7.20
2022-08-27T14:36:28.164Z,6.40
2022-08-27T14:39:13.728Z,4.50
2022-08-27T14:42:00.250Z,4.13
2022-08-27T14:44:46.525Z,4.47
2022-08-27T14:47:33.982Z,4.75
2022-08-27T14:50:19.319Z,6.05
2022-08-27T14:53:05.064Z,5.85
2022-08-27T14:55:51.931Z,3.67
2022-08-27T14:58:38.226Z,5.30
2022-08-27T15:01:26.245Z,3.22
2022-08-27T15:04:12.443Z,3.88
2022-08-27T15:06:58.469Z,5.43
2022-08-27T15:09:44.002Z,3.20
2022-08-27T15:12:29.762Z,3.33
2022-08-27T15:15:15.935Z,6.18
2022-08-27T15:18:01.378Z,4.43
2022-08-27T15:20:47.288Z,5.15
2022-08-27T15:23:33.209Z,4.45
2022-08-27T15:26:18.315Z,4.30
2022-08-27T15:29:06.596Z,6.35
2022-08-27T15:31:52.832Z,6.63
2022-08-27T15:34:38.377Z,7.55
2022-08-27T15:37:24.407Z,6.30
2022-08-27T15:40:11.412Z,6.38
2022-08-27T15:43:02.363Z,8.48
2022-08-27T15:45:48.322Z,8.02
2022-08-27T15:48:34.031Z,4.35
2022-08-27T15:51:27.419Z,8.07
2022-08-27T15:54:12.890Z,6.45
2022-08-27T15:57:00.146Z,4.45
2022-08-27T15:59:45.903Z,4.20
2022-08-27T16:02:31.621Z,4.45
2022-08-27T16:05:17.945Z,4.63
2022-08-27T16:08:03.961Z,3.00
2022-08-27T16:10:49.775Z,4.15
2022-08-27T16:13:35.303Z,3.85
2022-08-27T16:16:30.805Z,5.18
2022-08-27T16:19:17.865Z,4.28
2022-08-27T16:22:04.123Z,2.92
2022-08-27T16:24:49.589Z,6.53
2022-08-27T16:27:35.576Z,5.75
2022-08-27T16:30:22.659Z,5.97
2022-08-27T16:33:10.552Z,4.28
2022-08-27T16:35:56.435Z,2.55
2022-08-27T16:38:42.358Z,4.93
2022-08-27T16:41:29.163Z,4.95
2022-08-27T16:44:15.792Z,4.07
2022-08-27T16:47:01.910Z,4.93
2022-08-27T16:50:06.917Z,8.25
2022-08-27T16:52:52.451Z,6.65
2022-08-27T16:55:42.832Z,4.32
2022-08-27T16:58:30.956Z,7.88
2022-08-27T17:01:20.258Z,4.93
2022-08-27T17:04:16.130Z,3.47
2022-08-27T17:07:07.274Z,5.45
2022-08-27T17:10:05.742Z,4.65
2022-08-27T17:12:51.907Z,4.38
2022-08-27T17:15:37.752Z,3.20
2022-08-27T17:18:27.243Z,7.00
2022-08-27T17:21:14.526Z,4.28
2022-08-27T17:24:02.419Z,4.55
2022-08-27T17:26:48.134Z,2.30
2022-08-27T17:29:33.709Z,5.13
2022-08-27T17:32:19.109Z,4.60
2022-08-27T17:35:07.081Z,5.28
2022-08-27T17:37:52.439Z,3.53
2022-08-27T17:40:38.191Z,6.20
2022-08-27T17:43:23.939Z,5.30
2022-08-27T17:46:10.305Z,3.30
2022-08-27T17:48:56.104Z,4.70
2022-08-27T17:51:41.810Z,4.30
2022-08-27T17:54:30.223Z,4.90
2022-08-27T17:57:25.468Z,5.55
2022-08-27T18:00:14.173Z,5.68
2022-08-27T18:02:59.886Z,6.43
2022-08-27T18:05:47.497Z,6.80
2022-08-27T18:08:33.015Z,5.75
2022-08-27T18:11:19.261Z,4.95
2022-08-27T18:14:05.195Z,3.35
2022-08-27T18:16:51.020Z,5.07
2022-08-27T18:19:39.761Z,5.35
2022-08-27T18:22:28.559Z,7.55
2022-08-27T18:25:24.759Z,4.10
2022-08-27T18:28:12.003Z,6.60
2022-08-27T18:30:58.353Z,5.78
2022-08-27T18:33:48.857Z,4.63
2022-08-27T18:36:34.904Z,6.28
2022-08-27T18:39:20.755Z,7.45
2022-08-27T18:42:12.401Z,4.72
2022-08-27T18:44:59.143Z,3.22
2022-08-27T18:47:47.355Z,6.07
2022-08-27T18:50:42.496Z,4.70
2022-08-27T18:53:30.377Z,6.03
2022-08-27T18:56:18.876Z,6.72
2022-08-27T18:59:06.796Z,5.38
2022-08-27T19:01:54.687Z,6.20
2022-08-27T19:04:40.482Z,7.78
2022-08-27T19:07:26.303Z,5.38
2022-08-27T19:10:12.330Z,4.78
2022-08-27T19:12:58.899Z,5.30
2022-08-27T19:15:51.600Z,4.18
2022-08-27T19:18:38.300Z,4.80
2022-08-27T19:21:24.011Z,6.30
2022-08-27T19:24:10.203Z,6.00
2022-08-27T19:26:55.606Z,5.15
2022-08-27T19:29:41.303Z,9.32
2022-08-27T19:32:26.716Z,3.35
2022-08-27T19:35:12.768Z,5.65
2022-08-27T19:38:01.209Z,3.45
2022-08-27T19:40:49.169Z,5.85
2022-08-27T19:43:34.928Z,7.00
2022-08-27T19:46:23.263Z,5.13
2022-08-27T19:49:09.033Z,3.92
2022-08-27T19:51:54.470Z,5.25
2022-08-27T19:54:56.987Z,7.55
2022-08-27T19:57:46.135Z,4.47
2022-08-27T20:00:31.773Z,8.30
2022-08-27T20:03:17.439Z,7.65
2022-08-27T20:06:03.642Z,6.05
2022-08-27T20:08:49.577Z,6.57
2022-08-27T20:11:37.099Z,5.50
2022-08-27T20:14:22.550Z,8.23
2022-08-27T20:17:08.264Z,10.55
2022-08-27T20:19:54.699Z,7.18
2022-08-27T20:22:40.719Z,6.43
2022-08-27T20:25:26.702Z,9.10
2022-08-27T20:28:37.651Z,5.88
2022-08-27T20:31:17.988Z,7.90
2022-08-27T20:34:04.198Z,7.85
2022-08-27T20:36:50.436Z,6.28
2022-08-27T20:39:38.865Z,5.90
2022-08-27T20:42:24.549Z,3.13
2022-08-27T20:45:12.282Z,6.75
2022-08-27T20:47:58.895Z,9.73
2022-08-27T20:50:44.133Z,7.32
2022-08-27T20:53:29.884Z,5.78
2022-08-27T20:56:15.311Z,5.63
2022-08-27T20:59:19.090Z,7.03
2022-08-27T21:02:07.392Z,5.43
2022-08-27T21:04:54.304Z,5.70
2022-08-27T21:07:39.844Z,7.80
2022-08-27T21:10:25.264Z,9.63
2022-08-27T21:13:12.540Z,7.90
2022-08-27T21:15:58.392Z,15.57
2022-08-27T21:18:44.147Z,8.00
2022-08-27T21:21:29.786Z,7.75
2022-08-27T21:24:15.496Z,3.08
2022-08-27T21:27:00.944Z,6.55
2022-08-27T21:29:46.761Z,6.43
2022-08-27T21:32:32.189Z,9.50
2022-08-27T21:35:17.454Z,8.82
2022-08-27T21:38:03.318Z,9.38
2022-08-27T21:40:48.711Z,7.72
2022-08-27T21:43:34.346Z,6.38
2022-08-27T21:46:20.128Z,6.38
2022-08-27T21:49:05.479Z,7.22
2022-08-27T21:51:51.216Z,5.30
2022-08-27T21:54:39.713Z,6.10
2022-08-27T21:57:24.935Z,9.93
2022-08-27T22:00:37.311Z,8.10
2022-08-27T22:03:24.464Z,7.43
2022-08-27T22:06:12.960Z,8.55
2022-08-27T22:08:58.268Z,9.13
2022-08-27T22:11:44.797Z,7.90
2022-08-27T22:14:30.596Z,6.38
2022-08-27T22:17:16.006Z,7.28
2022-08-27T22:20:01.676Z,9.55
2022-08-27T22:22:46.895Z,6.38
2022-08-27T22:25:32.361Z,8.45
2022-08-27T22:28:18.375Z,5.70
2022-08-27T22:31:04.352Z,7.97
2022-08-27T22:33:50.225Z,12.45
2022-08-27T22:36:36.095Z,9.35
2022-08-27T22:39:21.938Z,8.70
2022-08-27T22:42:09.617Z,9.60
2022-08-27T22:44:58.643Z,7.82
2022-08-27T22:47:44.345Z,8.23
2022-08-27T22:50:29.725Z,6.38
2022-08-27T22:53:15.216Z,8.80
2022-08-27T22:56:00.805Z,5.70
2022-08-27T22:58:46.447Z,10.15
2022-08-27T23:01:31.910Z,8.15
2022-08-27T23:04:18.503Z,7.13
2022-08-27T23:07:05.240Z,5.35
2022-08-27T23:09:50.836Z,5.78
2022-08-27T23:12:38.892Z,4.88
2022-08-27T23:15:28.206Z,6.78
2022-08-27T23:18:13.868Z,6.55
2022-08-27T23:21:00.031Z,10.00
2022-08-27T23:23:45.833Z,4.93
2022-08-27T23:26:49.597Z,5.57
2022-08-27T23:29:35.868Z,6.60
2022-08-27T23:32:22.621Z,6.13
2022-08-27T23:35:08.833Z,9.57
2022-08-27T23:37:54.494Z,6.45
2022-08-27T23:40:40.900Z,7.47
2022-08-27T23:43:26.656Z,7.10
2022-08-27T23:46:13.004Z,7.15
2022-08-27T23:48:58.248Z,9.77
2022-08-27T23:51:43.809Z,7.95
2022-08-27T23:54:29.206Z,9.98
2022-08-27T23:57:14.893Z,7.65
